createdAt,value
2018-08-25T00:00:58.391Z,100041.64
2018-08-25T00:03:25.331Z,100039.63
2018-08-25T00:05:53.947Z,100033.84
2018-08-25T00:08:20.926Z,100016.45
2018-08-25T00:10:48.597Z,100017.00
2018-08-25T00:13:15.532Z,100013.01
2018-08-25T00:15:44.547Z,100012.25
2018-08-25T00:18:11.496Z,100009.76
2018-08-25T00:20:39.084Z,100020.05
2018-08-25T00:23:06.216Z,100019.73
2018-08-25T00:25:36.187Z,100007.92
2018-08-25T00:28:03.139Z,100004.31
2018-08-25T00:30:35.863Z,100012.85
2018-08-25T00:33:02.776Z,100012.55
2018-08-25T00:35:29.762Z,100007.29
2018-08-25T00:37:56.688Z,100004.80
2018-08-25T00:40:24.747Z,100011.44
2018-08-25T00:42:51.760Z,100003.03
2018-08-25T00:45:18.708Z,99995.59
2018-08-25T00:47:46.543Z,99995.53
2018-08-25T00:50:13.419Z,99993.33
2018-08-25T00:52:40.475Z,99990.24
2018-08-25T00:55:07.398Z,99989.66
2018-08-25T00:57:34.395Z,99995.39
2018-08-25T01:00:01.968Z,100005.76
2018-08-25T01:02:29.076Z,100025.89
2018-08-25T01:04:56.632Z,100040.80
2018-08-25T01:07:23.500Z,100037.58
2018-08-25T01:09:50.427Z,100042.00
2018-08-25T01:12:17.386Z,100042.41
2018-08-25T01:14:44.352Z,100026.98
2018-08-25T01:17:11.301Z,100030.01
2018-08-25T01:19:38.261Z,100023.14
2018-08-25T01:22:05.202Z,100016.46
2018-08-25T01:24:32.175Z,100013.44
2018-08-25T01:26:59.949Z,100000.37
2018-08-25T01:29:27.559Z,99994.02
2018-08-25T01:31:54.482Z,99994.09
2018-08-25T01:34:21.420Z,99998.64
2018-08-25T01:36:48.408Z,99987.53
2018-08-25T01:39:16.353Z,99992.90
2018-08-25T01:41:43.371Z,99984.13
2018-08-25T01:44:10.396Z,99978.44
2018-08-25T01:46:37.339Z,99975.81
2018-08-25T01:49:04.283Z,99970.33
2018-08-25T01:51:31.308Z,99971.38
2018-08-25T01:53:58.434Z,99969.14
2018-08-25T01:56:25.403Z,99973.52
2018-08-25T01:58:52.286Z,99967.70
2018-08-25T02:01:22.283Z,99975.26
2018-08-25T02:03:49.220Z,99965.83
2018-08-25T02:06:16.208Z,99969.30
2018-08-25T02:08:43.204Z,99968.70
2018-08-25T02:11:11.043Z,99964.59
2018-08-25T02:13:37.966Z,99952.88
2018-08-25T02:16:05.416Z,99957.81
2018-08-25T02:18:32.391Z,99953.50
2018-08-25T02:21:00.036Z,99954.23
2018-08-25T02:23:27.015Z,99949.80
2018-08-25T02:25:53.971Z,99944.64
2018-08-25T02:28:21.050Z,99947.67
2018-08-25T02:30:47.883Z,99951.26
2018-08-25T02:33:14.901Z,99950.29
2018-08-25T02:35:41.802Z,99951.29
2018-08-25T02:38:08.759Z,99946.86
2018-08-25T02:40:35.719Z,99959.56
2018-08-25T02:43:02.693Z,99948.47
2018-08-25T02:45:29.664Z,99955.20
2018-08-25T02:47:56.620Z,99952.48
2018-08-25T02:50:23.845Z,99946.52
2018-08-25T02:52:50.878Z,99939.23
2018-08-25T02:55:17.845Z,99941.52
2018-08-25T02:57:45.551Z,99939.05
2018-08-25T03:00:12.548Z,99935.34
2018-08-25T03:02:39.471Z,99937.84
2018-08-25T03:05:06.420Z,99942.36
2018-08-25T03:07:33.385Z,99933.41
2018-08-25T03:10:00.377Z,99932.59
2018-08-25T03:12:27.671Z,99934.70
2018-08-25T03:14:55.607Z,99929.15
2018-08-25T03:17:22.584Z,99934.16
2018-08-25T03:19:49.476Z,99928.22
2018-08-25T03:22:16.467Z,99908.38
2018-08-25T03:24:46.123Z,99912.06
2018-08-25T03:27:14.088Z,99916.38
2018-08-25T03:29:41.000Z,99912.47
2018-08-25T03:32:07.898Z,99905.36
2018-08-25T03:34:34.832Z,99900.80
2018-08-25T03:37:01.802Z,99905.06
2018-08-25T03:39:28.771Z,99894.97
2018-08-25T03:41:55.723Z,99889.97
2018-08-25T03:44:23.596Z,99896.88
2018-08-25T03:46:50.567Z,99886.89
2018-08-25T03:49:17.499Z,99886.91
2018-08-25T03:51:45.053Z,99891.50
2018-08-25T03:54:12.023Z,99884.86
2018-08-25T03:56:41.963Z,99885.38
2018-08-25T03:59:08.975Z,99889.79
2018-08-25T04:01:37.101Z,99885.95
2018-08-25T04:04:03.930Z,99891.84
2018-08-25T04:06:30.923Z,99891.20
2018-08-25T04:08:57.864Z,99897.02
2018-08-25T04:11:24.843Z,99891.58
2018-08-25T04:13:51.774Z,99889.45
2018-08-25T04:16:18.735Z,99887.09
2018-08-25T04:18:45.707Z,99889.77
2018-08-25T04:21:12.648Z,99876.52
2018-08-25T04:23:39.591Z,99881.66
2018-08-25T04:26:07.111Z,99886.57
2018-08-25T04:28:34.578Z,99879.23
2018-08-25T04:31:01.552Z,99877.91
2018-08-25T04:33:29.168Z,99879.91
2018-08-25T04:35:56.056Z,99877.22
2018-08-25T04:38:23.005Z,99873.80
2018-08-25T04:40:49.947Z,99878.62
2018-08-25T04:43:16.899Z,99879.85
2018-08-25T04:45:43.839Z,99881.78
2018-08-25T04:48:11.859Z,99882.17
2018-08-25T04:50:38.808Z,99892.82
2018-08-25T04:53:05.760Z,99882.03
2018-08-25T04:55:32.682Z,99881.27
2018-08-25T04:57:59.698Z,99881.34
2018-08-25T05:00:26.643Z,99883.45
2018-08-25T05:02:53.599Z,99882.84
2018-08-25T05:05:20.583Z,99880.87
2018-08-25T05:07:47.524Z,99881.97
2018-08-25T05:10:14.406Z,99882.91
2018-08-25T05:12:41.344Z,99881.72
2018-08-25T05:15:08.279Z,99877.72
2018-08-25T05:17:35.276Z,99883.85
2018-08-25T05:20:02.110Z,99881.97
2018-08-25T05:22:29.023Z,99887.28
2018-08-25T05:24:56.004Z,99880.47
2018-08-25T05:27:22.959Z,99878.23
2018-08-25T05:29:49.899Z,99881.20
2018-08-25T05:32:18.617Z,99882.01
2018-08-25T05:34:47.119Z,99872.43
2018-08-25T05:37:14.071Z,99880.05
2018-08-25T05:39:40.997Z,99873.93
2018-08-25T05:42:07.979Z,99876.42
2018-08-25T05:44:34.946Z,99876.94
2018-08-25T05:47:02.087Z,99875.05
2018-08-25T05:49:30.045Z,99872.25
2018-08-25T05:51:57.057Z,99875.00
2018-08-25T05:54:24.004Z,99879.05
2018-08-25T05:56:51.027Z,99879.73
2018-08-25T05:59:18.037Z,99878.80
2018-08-25T06:01:44.986Z,99877.36
2018-08-25T06:04:12.958Z,99882.96
2018-08-25T06:06:42.696Z,99882.27
2018-08-25T06:09:11.463Z,99875.00
2018-08-25T06:11:38.483Z,99874.48
2018-08-25T06:14:05.420Z,99882.48
2018-08-25T06:16:32.351Z,99883.94
2018-08-25T06:18:59.323Z,99881.86
2018-08-25T06:21:26.241Z,99886.47
2018-08-25T06:23:53.319Z,99893.02
2018-08-25T06:26:20.280Z,99892.33
2018-08-25T06:28:47.246Z,99892.63
2018-08-25T06:31:14.168Z,99889.14
2018-08-25T06:33:41.126Z,99898.88
2018-08-25T06:36:08.278Z,99901.48
2018-08-25T06:38:35.127Z,99902.63
2018-08-25T06:41:02.012Z,99896.58
2018-08-25T06:43:29.041Z,99899.11
2018-08-25T06:46:14.284Z,99902.80
2018-08-25T06:48:41.211Z,99901.86
2018-08-25T06:51:08.675Z,99901.98
2018-08-25T06:53:37.734Z,99904.66
2018-08-25T06:56:04.807Z,99908.66
2018-08-25T06:58:31.748Z,99912.34
2018-08-25T07:00:58.680Z,99911.70
2018-08-25T07:03:25.663Z,99910.09
2018-08-25T07:05:56.439Z,99912.08
2018-08-25T07:08:23.363Z,99918.20
2018-08-25T07:10:51.323Z,99918.75
2018-08-25T07:13:19.188Z,99922.98
2018-08-25T07:15:46.173Z,99924.48
2018-08-25T07:18:13.134Z,99922.75
2018-08-25T07:20:40.182Z,99928.42
2018-08-25T07:23:08.694Z,99919.98
2018-08-25T07:25:37.192Z,99919.06
2018-08-25T07:28:04.239Z,99923.94
2018-08-25T07:30:31.228Z,99920.11
2018-08-25T07:32:58.258Z,99929.78
2018-08-25T07:35:25.180Z,99926.48
2018-08-25T07:37:52.167Z,99928.95
2018-08-25T07:40:19.120Z,99937.02
2018-08-25T07:42:46.071Z,99945.57
2018-08-25T07:45:13.081Z,99947.83
2018-08-25T07:47:39.951Z,99952.31
2018-08-25T07:50:07.556Z,99956.55
2018-08-25T07:52:34.763Z,99955.84
2018-08-25T07:55:01.688Z,99963.14
2018-08-25T07:57:28.623Z,99964.48
2018-08-25T07:59:55.593Z,99961.19
2018-08-25T08:02:22.555Z,99967.53
2018-08-25T08:04:49.535Z,99968.05
2018-08-25T08:07:16.358Z,99970.11
2018-08-25T08:09:43.337Z,99972.14
2018-08-25T08:12:10.370Z,99970.13
2018-08-25T08:14:39.291Z,99975.98
2018-08-25T08:17:08.231Z,99971.27
2018-08-25T08:19:35.140Z,99971.88
2018-08-25T08:22:03.840Z,99970.63
2018-08-25T08:24:30.771Z,99978.08
2018-08-25T08:26:58.276Z,99972.58
2018-08-25T08:29:26.271Z,99973.38
2018-08-25T08:31:53.216Z,99975.91
2018-08-25T08:34:21.255Z,99979.12
2018-08-25T08:36:48.296Z,99970.69
2018-08-25T08:39:15.188Z,99976.59
2018-08-25T08:41:42.194Z,99983.36
2018-08-25T08:44:09.167Z,99980.84
2018-08-25T08:46:36.806Z,99988.45
2018-08-25T08:49:05.392Z,99991.30
2018-08-25T08:51:32.944Z,99994.63
2018-08-25T08:54:00.211Z,99990.98
2018-08-25T08:56:27.195Z,99993.42
2018-08-25T08:58:54.212Z,99993.73
2018-08-25T09:01:21.256Z,99995.22
2018-08-25T09:03:48.286Z,99993.48
2018-08-25T09:06:15.223Z,99999.77
2018-08-25T09:08:42.153Z,100004.10
2018-08-25T09:11:09.755Z,100006.98
2018-08-25T09:13:36.719Z,100008.91
2018-08-25T09:16:04.343Z,99997.97
2018-08-25T09:18:31.343Z,99999.39
2018-08-25T09:20:58.323Z,100002.02
2018-08-25T09:23:25.230Z,100001.76
2018-08-25T09:25:52.223Z,99999.45
2018-08-25T09:28:19.164Z,99998.14
2018-08-25T09:30:46.146Z,100001.38
2018-08-25T09:33:13.124Z,100003.14
2018-08-25T09:35:40.082Z,99999.95
2018-08-25T09:38:07.092Z,100003.77
2018-08-25T09:40:34.071Z,99992.66
2018-08-25T09:43:01.044Z,99998.60
2018-08-25T09:45:27.959Z,100000.19
2018-08-25T09:47:54.947Z,99996.64
2018-08-25T09:50:21.904Z,100004.32
2018-08-25T09:52:48.856Z,100008.49
2018-08-25T09:55:15.826Z,100010.30
2018-08-25T09:57:42.771Z,100011.20
2018-08-25T10:00:10.505Z,100008.42
2018-08-25T10:02:37.515Z,100004.61
2018-08-25T10:05:05.660Z,100006.00
2018-08-25T10:07:32.628Z,99998.61
2018-08-25T10:09:59.584Z,100004.98
2018-08-25T10:12:26.569Z,99999.59
2018-08-25T10:14:55.276Z,100011.13
2018-08-25T10:17:22.252Z,100009.31
2018-08-25T10:19:49.189Z,100004.69
2018-08-25T10:22:17.151Z,100012.00
2018-08-25T10:24:45.747Z,100008.05
2018-08-25T10:27:12.826Z,100005.73
2018-08-25T10:29:39.792Z,100000.96
2018-08-25T10:32:06.759Z,100004.84
2018-08-25T10:34:33.678Z,100002.77
2018-08-25T10:37:00.634Z,99996.95
2018-08-25T10:39:27.600Z,100000.55
2018-08-25T10:41:54.633Z,100000.46
2018-08-25T10:44:21.538Z,99998.47
2018-08-25T10:46:48.475Z,99992.27
2018-08-25T10:49:15.443Z,99994.56
2018-08-25T10:51:42.422Z,99989.92
2018-08-25T10:54:09.403Z,99999.33
2018-08-25T10:56:36.328Z,99991.71
2018-08-25T10:59:03.256Z,99992.63
2018-08-25T11:01:31.264Z,99993.78
2018-08-25T11:03:58.792Z,99995.27
2018-08-25T11:06:25.827Z,99996.52
2018-08-25T11:08:53.406Z,100001.66
2018-08-25T11:11:20.863Z,100006.15
2018-08-25T11:13:47.735Z,100000.73
2018-08-25T11:16:14.819Z,99997.47
2018-08-25T11:18:42.731Z,100001.36
2018-08-25T11:21:09.731Z,100020.42
2018-08-25T11:23:36.780Z,100031.91
2018-08-25T11:26:04.269Z,100039.09
2018-08-25T11:28:31.363Z,100038.75
2018-08-25T11:30:58.315Z,100030.19
2018-08-25T11:33:26.950Z,100034.71
2018-08-25T11:35:53.887Z,100035.31
2018-08-25T11:38:20.847Z,100025.94
2018-08-25T11:40:48.756Z,100031.78
2018-08-25T11:43:16.702Z,100033.44
2018-08-25T11:45:44.363Z,100030.17
2018-08-25T11:48:11.342Z,100015.97
2018-08-25T11:50:38.319Z,100020.37
2018-08-25T11:53:05.236Z,100009.12
2018-08-25T11:55:32.187Z,100009.09
2018-08-25T11:57:59.168Z,100019.35
2018-08-25T12:00:26.124Z,100005.94
2018-08-25T12:02:53.067Z,100004.08
2018-08-25T12:05:20.019Z,99998.20
2018-08-25T12:07:47.003Z,100000.84
2018-08-25T12:10:14.911Z,99989.89
2018-08-25T12:12:42.854Z,99987.77
2018-08-25T12:15:09.843Z,99989.03
2018-08-25T12:17:37.367Z,99979.48
2018-08-25T12:20:04.768Z,99983.35
2018-08-25T12:22:31.699Z,99973.60
2018-08-25T12:24:58.643Z,99970.11
2018-08-25T12:27:25.599Z,99975.52
2018-08-25T12:29:52.551Z,99964.16
2018-08-25T12:32:19.543Z,99976.45
2018-08-25T12:34:46.461Z,99977.15
2018-08-25T12:37:13.436Z,99971.56
2018-08-25T12:39:40.400Z,99971.45
2018-08-25T12:42:07.360Z,99974.41
2018-08-25T12:44:34.306Z,99967.95
2018-08-25T12:47:01.861Z,99976.22
2018-08-25T12:49:29.884Z,99972.83
2018-08-25T12:51:56.836Z,99968.73
2018-08-25T12:54:23.793Z,99961.91
2018-08-25T12:56:50.736Z,99971.78
2018-08-25T12:59:17.778Z,99962.85
2018-08-25T13:01:45.404Z,99961.13
2018-08-25T13:04:12.347Z,99964.77
2018-08-25T13:06:39.348Z,99960.16
2018-08-25T13:09:07.419Z,99961.61
2018-08-25T13:11:35.920Z,99966.10
2018-08-25T13:14:02.951Z,99968.33
2018-08-25T13:16:29.895Z,99969.27
2018-08-25T13:18:56.837Z,99972.30
2018-08-25T13:21:23.811Z,99968.77
2018-08-25T13:23:52.407Z,99956.45
2018-08-25T13:26:19.326Z,99949.38
2018-08-25T13:28:49.584Z,99948.20
2018-08-25T13:31:17.516Z,99934.07
2018-08-25T13:33:44.443Z,99945.03
2018-08-25T13:36:11.499Z,99952.98
2018-08-25T13:38:38.464Z,99938.05
2018-08-25T13:41:05.396Z,99946.05
2018-08-25T13:43:32.428Z,99950.78
2018-08-25T13:45:59.327Z,99936.86
2018-08-25T13:48:26.283Z,99922.64
2018-08-25T13:50:53.332Z,99927.08
2018-08-25T13:53:20.348Z,99932.05
2018-08-25T13:55:47.955Z,99933.98
2018-08-25T13:58:14.926Z,99932.67
2018-08-25T14:00:41.909Z,99931.58
2018-08-25T14:03:08.855Z,99926.33
2018-08-25T14:05:35.830Z,99933.03
2018-08-25T14:08:02.801Z,99928.73
2018-08-25T14:10:30.444Z,99924.92
2018-08-25T14:12:57.994Z,99937.89
2018-08-25T14:15:24.951Z,99944.02
2018-08-25T14:17:52.488Z,99942.84
2018-08-25T14:20:19.513Z,99943.09
2018-08-25T14:22:46.429Z,99942.77
2018-08-25T14:25:13.411Z,99937.12
2018-08-25T14:27:40.432Z,99945.34
2018-08-25T14:30:08.423Z,99936.97
2018-08-25T14:32:35.395Z,99931.26
2018-08-25T14:35:02.948Z,99928.78
2018-08-25T14:37:29.933Z,99935.79
2018-08-25T14:40:00.482Z,99932.39
2018-08-25T14:42:27.396Z,99928.77
2018-08-25T14:44:54.299Z,99910.77
2018-08-25T14:47:21.254Z,99923.27
2018-08-25T14:49:48.262Z,99923.00
2018-08-25T14:52:16.373Z,99933.53
2018-08-25T14:54:46.296Z,99937.34
2018-08-25T14:57:13.264Z,99934.16
2018-08-25T14:59:40.263Z,99935.06
2018-08-25T15:02:07.167Z,99929.48
2018-08-25T15:04:34.159Z,99925.98
2018-08-25T15:07:01.059Z,99920.77
2018-08-25T15:09:28.964Z,99927.66
2018-08-25T15:11:55.954Z,99938.25
2018-08-25T15:14:22.894Z,99927.31
2018-08-25T15:16:49.859Z,99930.01
2018-08-25T15:19:16.815Z,99923.71
2018-08-25T15:21:43.767Z,99932.81
2018-08-25T15:24:13.394Z,99944.26
2018-08-25T15:26:40.300Z,99946.59
2018-08-25T15:29:07.254Z,99945.79
2018-08-25T15:31:34.248Z,99942.95
2018-08-25T15:34:02.976Z,99943.80
2018-08-25T15:36:29.925Z,99946.75
2018-08-25T15:38:58.512Z,99940.95
2018-08-25T15:41:25.504Z,99948.06
2018-08-25T15:43:52.393Z,99940.13
2018-08-25T15:46:19.347Z,99945.86
2018-08-25T15:48:47.288Z,99956.88
2018-08-25T15:51:14.175Z,99945.27
2018-08-25T15:53:41.159Z,99950.54
2018-08-25T15:56:08.120Z,99953.48
2018-08-25T15:58:35.076Z,99948.55
2018-08-25T16:01:02.006Z,99956.67
2018-08-25T16:03:29.037Z,99963.91
2018-08-25T16:05:56.040Z,99970.32
2018-08-25T16:08:23.026Z,99977.03
2018-08-25T16:10:50.471Z,99982.31
2018-08-25T16:13:17.452Z,99975.94
2018-08-25T16:15:44.395Z,99968.73
2018-08-25T16:18:11.372Z,99964.33
2018-08-25T16:20:38.316Z,99976.04
2018-08-25T16:23:05.228Z,99970.53
2018-08-25T16:25:33.254Z,99971.61
2018-08-25T16:28:00.207Z,99970.92
2018-08-25T16:30:28.191Z,99981.48
2018-08-25T16:32:55.168Z,99982.28
2018-08-25T16:35:22.071Z,99975.70
2018-08-25T16:37:49.038Z,99978.47
2018-08-25T16:40:16.037Z,99984.03
2018-08-25T16:42:43.057Z,99992.45
2018-08-25T16:45:10.010Z,99989.92
2018-08-25T16:47:36.995Z,99990.66
2018-08-25T16:50:03.935Z,99996.41
2018-08-25T16:52:30.800Z,99996.02
2018-08-25T16:54:57.734Z,100005.43
2018-08-25T16:57:24.716Z,100000.64
2018-08-25T16:59:51.671Z,99995.52
2018-08-25T17:02:18.640Z,99990.45
2018-08-25T17:04:45.572Z,99989.91
2018-08-25T17:07:12.511Z,99979.42
2018-08-25T17:09:39.494Z,99985.72
2018-08-25T17:12:06.428Z,99994.71
2018-08-25T17:14:34.461Z,99994.14
2018-08-25T17:17:01.440Z,99995.39
2018-08-25T17:19:28.383Z,99996.69
2018-08-25T17:21:57.096Z,99999.72
2018-08-25T17:24:25.519Z,100001.84
2018-08-25T17:26:52.514Z,99999.50
2018-08-25T17:29:20.079Z,100000.31
2018-08-25T17:31:47.045Z,100011.48
2018-08-25T17:34:14.068Z,100014.66
2018-08-25T17:36:41.060Z,100013.03
2018-08-25T17:39:10.508Z,100014.26
2018-08-25T17:41:38.200Z,100023.38
2018-08-25T17:44:07.154Z,100024.50
2018-08-25T17:46:35.008Z,100026.38
2018-08-25T17:49:05.295Z,100024.16
2018-08-25T17:51:33.052Z,100021.19
2018-08-25T17:53:59.999Z,100027.14
2018-08-25T17:56:26.920Z,100037.95
2018-08-25T17:58:54.532Z,100043.98
2018-08-25T18:01:22.531Z,100048.64
2018-08-25T18:03:53.584Z,100045.55
2018-08-25T18:06:21.440Z,100048.64
2018-08-25T18:08:48.383Z,100053.87
2018-08-25T18:11:15.535Z,100053.34
2018-08-25T18:13:42.333Z,100060.34
2018-08-25T18:16:09.495Z,100056.11
2018-08-25T18:18:37.072Z,100067.78
2018-08-25T18:21:04.015Z,100070.38
2018-08-25T18:23:31.045Z,100071.41
2018-08-25T18:25:58.080Z,100076.89
2018-08-25T18:28:25.375Z,100079.80
2018-08-25T18:30:53.064Z,100084.33
2018-08-25T18:33:21.047Z,100084.23
2018-08-25T18:35:49.055Z,100089.02
2018-08-25T18:38:17.020Z,100094.64
2018-08-25T18:40:43.989Z,100094.52
2018-08-25T18:43:10.931Z,100096.78
2018-08-25T18:45:39.928Z,100088.72
2018-08-25T18:48:06.938Z,100095.84
2018-08-25T18:50:33.848Z,100103.84
2018-08-25T18:53:00.827Z,100104.53
2018-08-25T18:55:28.607Z,100105.78
2018-08-25T18:57:55.556Z,100114.44
2018-08-25T19:00:22.496Z,100122.08
2018-08-25T19:02:49.454Z,100129.77
2018-08-25T19:05:16.435Z,100134.06
2018-08-25T19:07:43.395Z,100132.20
2018-08-25T19:10:10.348Z,100140.56
2018-08-25T19:12:37.302Z,100141.36
2018-08-25T19:15:04.247Z,100137.50
2018-08-25T19:17:32.215Z,100140.81
2018-08-25T19:19:59.179Z,100147.42
2018-08-25T19:22:26.156Z,100146.78
2018-08-25T19:24:54.116Z,100145.66
2018-08-25T19:27:21.083Z,100149.59
2018-08-25T19:29:48.125Z,100153.24
2018-08-25T19:32:15.004Z,100159.95
2018-08-25T19:34:41.942Z,100166.58
2018-08-25T19:37:08.863Z,100162.75
2018-08-25T19:39:35.829Z,100168.11
2018-08-25T19:42:02.831Z,100170.29
2018-08-25T19:44:30.539Z,100177.95
2018-08-25T19:46:57.492Z,100180.29
2018-08-25T19:49:24.371Z,100185.81
2018-08-25T19:51:51.376Z,100195.58
2018-08-25T19:54:18.331Z,100197.17
2018-08-25T19:56:45.284Z,100200.74
2018-08-25T19:59:12.218Z,100210.96
2018-08-25T20:01:40.242Z,100207.85
2018-08-25T20:04:07.176Z,100215.15
2018-08-25T20:06:34.152Z,100209.07
2018-08-25T20:09:01.088Z,100216.13
2018-08-25T20:11:28.044Z,100211.98
2018-08-25T20:13:55.016Z,100204.67
2018-08-25T20:16:21.927Z,100210.18
2018-08-25T20:18:48.902Z,100211.56
2018-08-25T20:21:15.874Z,100216.22
2018-08-25T20:23:42.842Z,100214.20
2018-08-25T20:26:09.832Z,100216.91
2018-08-25T20:28:36.751Z,100212.07
2018-08-25T20:31:03.703Z,100218.35
2018-08-25T20:33:30.667Z,100219.14
2018-08-25T20:35:58.272Z,100229.63
2018-08-25T20:38:28.775Z,100227.69
2018-08-25T20:40:55.828Z,100230.27
2018-08-25T20:43:23.595Z,100232.22
2018-08-25T20:45:50.775Z,100230.47
2018-08-25T20:48:17.643Z,100232.97
2018-08-25T20:50:44.611Z,100234.92
2018-08-25T20:53:11.538Z,100242.41
2018-08-25T20:55:38.503Z,100244.30
2018-08-25T20:58:07.520Z,100253.64
2018-08-25T21:00:34.468Z,100262.00
2018-08-25T21:03:01.436Z,100283.27
2018-08-25T21:05:28.360Z,100292.27
2018-08-25T21:07:55.359Z,100291.05
2018-08-25T21:10:22.311Z,100283.28
2018-08-25T21:12:50.294Z,100283.80
2018-08-25T21:15:17.223Z,100296.84
2018-08-25T21:17:45.245Z,100291.94
2018-08-25T21:20:12.179Z,100299.77
2018-08-25T21:22:39.136Z,100297.98
2018-08-25T21:25:06.222Z,100295.04
2018-08-25T21:27:33.120Z,100299.08
2018-08-25T21:30:00.124Z,100302.17
2018-08-25T21:32:27.083Z,100303.17
2018-08-25T21:34:54.031Z,100302.52
2018-08-25T21:37:21.007Z,100302.70
2018-08-25T21:39:48.007Z,100307.74
2018-08-25T21:42:15.019Z,100316.92
2018-08-25T21:44:45.541Z,100319.88
2018-08-25T21:47:12.526Z,100314.63
2018-08-25T21:49:39.478Z,100320.50
2018-08-25T21:52:07.143Z,100319.13
2018-08-25T21:54:34.710Z,100322.28
2018-08-25T21:57:02.289Z,100326.70
2018-08-25T21:59:29.259Z,100323.10
2018-08-25T22:01:57.807Z,100326.07
2018-08-25T22:04:25.407Z,100328.96
2018-08-25T22:06:52.431Z,100328.34
2018-08-25T22:09:20.235Z,100324.91
2018-08-25T22:11:47.167Z,100328.52
2018-08-25T22:14:14.139Z,100325.72
2018-08-25T22:16:41.132Z,100328.33
2018-08-25T22:19:08.695Z,100328.98
2018-08-25T22:21:35.641Z,100330.47
2018-08-25T22:24:03.199Z,100328.37
2018-08-25T22:26:30.695Z,100331.67
2018-08-25T22:28:58.247Z,100330.04
2018-08-25T22:31:26.342Z,100331.00
2018-08-25T22:33:53.296Z,100329.17
2018-08-25T22:36:20.289Z,100327.89
2018-08-25T22:38:47.212Z,100325.42
2018-08-25T22:41:14.173Z,100330.70
2018-08-25T22:43:41.132Z,100325.06
2018-08-25T22:46:08.575Z,100330.77
2018-08-25T22:48:35.565Z,100333.96
2018-08-25T22:51:02.536Z,100342.79
2018-08-25T22:53:29.484Z,100335.92
2018-08-25T22:55:56.444Z,100341.86
2018-08-25T22:58:23.305Z,100332.08
2018-08-25T23:00:50.257Z,100342.37
2018-08-25T23:03:17.203Z,100341.92
2018-08-25T23:05:45.183Z,100331.39
2018-08-25T23:08:13.164Z,100332.09
2018-08-25T23:10:40.245Z,100333.88
2018-08-25T23:13:07.151Z,100337.67
2018-08-25T23:15:34.131Z,100338.33
2018-08-25T23:18:01.123Z,100331.16
2018-08-25T23:20:30.843Z,100338.83
2018-08-25T23:22:58.803Z,100333.19
2018-08-25T23:25:25.791Z,100338.37
2018-08-25T23:27:57.284Z,100333.75
2018-08-25T23:30:28.935Z,100339.27
2018-08-25T23:32:56.742Z,100342.20
2018-08-25T23:35:24.249Z,100347.56
2018-08-25T23:37:51.201Z,100342.14
2018-08-25T23:40:18.147Z,100343.19
2018-08-25T23:42:45.112Z,100345.87
2018-08-25T23:45:13.084Z,100346.22
2018-08-25T23:47:43.031Z,100352.97
2018-08-25T23:50:10.000Z,100349.89
2018-08-25T23:52:37.003Z,100354.31
2018-08-25T23:55:06.635Z,100355.89
2018-08-25T23:57:33.631Z,100356.47
